DTTA/TUN METAR and TAF weather

Enter ICAO airport designator
Station Type Date Time Source
DTTA METAR 2020/07/07 09:00 UTC NOAA

DTTA 070900Z 29019KT 260V320 CAVOK 29/09 Q1012


Station Type Date Time Source
DTTA Decoded METAR 2020/07/07 09:00 UTC NOAA

Tunis-Carthage, Tunisia (DTTA) 36-50N 010-14E 4M
Jul 07, 2020 - 05:00 AM EDT / 2020.07.07 0900 UTC
Wind: from the WNW (290 degrees) at 22 MPH (19 KT) (direction variable):0
Visibility: greater than 7 mile(s):0
Temperature: 84 F (29 C)
Dew Point: 48 F (9 C)
Relative Humidity: 28%
Pressure (altimeter): 29.88 in. Hg (1012 hPa)
ob: DTTA 070900Z 29019KT 260V320 CAVOK 29/09 Q1012
cycle: 9

Station Type Date Time Source
DTTA TAF 2020/07/07 06:56 UTC NOAA

TAF DTTA 070500Z 0706/0806 27015KT 9999 FEW026 SCT040
BECMG 0706/0708 30021G35KT
BECMG 0802/0804 30009KT

Example: see airport list